createdAt,value
2023-05-24T00:01:27.237Z,98081.53
2023-05-24T00:06:29.181Z,98077.50
2023-05-24T00:11:30.978Z,98077.03
2023-05-24T00:16:32.923Z,98078.13
2023-05-24T00:21:36.764Z,98081.50
2023-05-24T00:26:38.427Z,98087.63
2023-05-24T00:31:40.317Z,98084.41
2023-05-24T00:36:42.025Z,98088.09
2023-05-24T00:41:43.787Z,98094.69
2023-05-24T00:46:45.560Z,98091.00
2023-05-24T00:51:48.491Z,98093.44
2023-05-24T00:56:50.391Z,98097.44
2023-05-24T01:01:52.435Z,98100.31
2023-05-24T01:07:20.453Z,98100.28
2023-05-24T01:12:25.229Z,98097.19
2023-05-24T01:17:33.223Z,98100.38
2023-05-24T01:23:03.275Z,98104.88
2023-05-24T01:28:08.182Z,98106.66
2023-05-24T01:33:10.012Z,98113.63
2023-05-24T01:38:12.218Z,98115.03
2023-05-24T01:43:29.081Z,98113.41
2023-05-24T01:48:46.003Z,98119.47
2023-05-24T01:53:50.040Z,98113.69
2023-05-24T01:58:54.724Z,98117.53
2023-05-24T02:03:56.496Z,98116.34
2023-05-24T02:08:58.182Z,98111.41
2023-05-24T02:13:59.915Z,98107.09
2023-05-24T02:19:01.610Z,98107.44
2023-05-24T02:24:03.286Z,98102.03
2023-05-24T02:29:05.206Z,98103.88
2023-05-24T02:34:07.681Z,98107.56
2023-05-24T02:39:09.784Z,98100.59
2023-05-24T02:44:12.044Z,98097.19
2023-05-24T02:49:13.892Z,98089.97
2023-05-24T02:54:17.694Z,98092.03
2023-05-24T02:59:19.501Z,98094.13
2023-05-24T03:04:23.129Z,98084.47
2023-05-24T03:09:24.869Z,98083.44
2023-05-24T03:14:26.609Z,98083.81
2023-05-24T03:19:28.394Z,98088.69
2023-05-24T03:24:33.526Z,98089.00
2023-05-24T03:29:35.501Z,98092.38
2023-05-24T03:34:37.244Z,98091.53
2023-05-24T03:39:38.966Z,98091.84
2023-05-24T03:44:55.851Z,98094.28
2023-05-24T03:49:58.153Z,98113.16
2023-05-24T03:54:59.884Z,98104.78
2023-05-24T04:00:01.737Z,98111.84
2023-05-24T04:05:04.689Z,98111.84
2023-05-24T04:10:09.781Z,98117.91
2023-05-24T04:15:17.787Z,98124.81
2023-05-24T04:20:19.612Z,98120.00
2023-05-24T04:25:21.413Z,98131.44
2023-05-24T04:30:23.129Z,98134.56
2023-05-24T04:35:25.646Z,98137.72
2023-05-24T04:40:28.504Z,98136.41
2023-05-24T04:45:30.862Z,98137.81
2023-05-24T04:50:32.574Z,98148.56
2023-05-24T04:55:34.305Z,98159.97
2023-05-24T05:00:36.067Z,98162.66
2023-05-24T05:05:38.072Z,98167.41
2023-05-24T05:10:39.816Z,98177.75
2023-05-24T05:15:42.865Z,98177.00
2023-05-24T05:20:45.038Z,98186.66
2023-05-24T05:25:47.086Z,98187.00
2023-05-24T05:30:48.924Z,98186.94
2023-05-24T05:35:52.327Z,98182.44
2023-05-24T05:40:55.986Z,98197.44
2023-05-24T05:45:57.757Z,98195.41
2023-05-24T05:50:59.445Z,98198.03
2023-05-24T05:56:01.203Z,98202.56
2023-05-24T06:01:02.881Z,98196.84
2023-05-24T06:06:04.805Z,98208.72
2023-05-24T06:11:06.662Z,98211.16
2023-05-24T06:16:08.656Z,98214.81
2023-05-24T06:21:10.752Z,98220.41
2023-05-24T06:26:12.484Z,98211.31
2023-05-24T06:31:14.168Z,98214.06
2023-05-24T06:36:15.850Z,98218.31
2023-05-24T06:41:17.886Z,98223.84
2023-05-24T06:46:19.555Z,98232.47
2023-05-24T06:51:21.869Z,98225.03
2023-05-24T06:56:23.527Z,98230.47
2023-05-24T07:01:25.245Z,98232.22
2023-05-24T07:06:27.206Z,98236.63
2023-05-24T07:11:28.925Z,98236.81
2023-05-24T07:16:30.606Z,98236.06
2023-05-24T07:21:32.302Z,98237.38
2023-05-24T07:26:34.289Z,98238.88
2023-05-24T07:31:36.940Z,98248.66
2023-05-24T07:36:38.644Z,98254.41
2023-05-24T07:41:40.386Z,98252.69
2023-05-24T07:46:42.247Z,98250.94
2023-05-24T07:51:43.990Z,98251.25
2023-05-24T07:56:45.668Z,98248.19
2023-05-24T08:01:47.829Z,98248.38
2023-05-24T08:06:49.559Z,98252.25
2023-05-24T08:11:51.281Z,98258.38
2023-05-24T08:16:53.038Z,98254.66
2023-05-24T08:21:56.839Z,98253.81
2023-05-24T08:26:58.984Z,98256.00
2023-05-24T08:32:01.127Z,98261.84
2023-05-24T08:37:03.317Z,98265.81
2023-05-24T08:42:09.274Z,98257.47
2023-05-24T08:47:13.895Z,98268.31
2023-05-24T08:52:16.390Z,98272.72
2023-05-24T08:57:19.081Z,98266.94
2023-05-24T09:02:20.885Z,98275.06
2023-05-24T09:07:25.810Z,98273.63
2023-05-24T09:12:37.482Z,98287.38
2023-05-24T09:17:40.796Z,98270.44
2023-05-24T09:22:43.199Z,98279.69
2023-05-24T09:27:50.889Z,98282.28
2023-05-24T09:33:00.352Z,98281.06
2023-05-24T09:38:02.143Z,98285.50
2023-05-24T09:43:09.632Z,98289.56
2023-05-24T09:48:16.545Z,98293.09
2023-05-24T09:53:19.326Z,98288.94
2023-05-24T09:58:21.880Z,98290.28
2023-05-24T10:03:25.343Z,98289.44
2023-05-24T10:08:27.986Z,98283.22
2023-05-24T10:13:30.339Z,98285.28
2023-05-24T10:18:32.364Z,98296.63
2023-05-24T10:23:34.908Z,98297.41
2023-05-24T10:28:42.743Z,98301.63
2023-05-24T10:33:48.359Z,98294.81
2023-05-24T10:38:50.454Z,98308.41
2023-05-24T10:44:07.824Z,98288.50
2023-05-24T10:49:13.809Z,98281.25
2023-05-24T10:54:19.210Z,98287.88
2023-05-24T10:59:34.685Z,98290.09
2023-05-24T11:04:43.393Z,98293.97
2023-05-24T11:09:52.629Z,98291.88
2023-05-24T11:14:54.383Z,98293.34
2023-05-24T11:19:56.817Z,98289.31
2023-05-24T11:25:03.345Z,98293.69
2023-05-24T11:30:07.312Z,98286.75
2023-05-24T11:35:11.578Z,98277.75
2023-05-24T11:40:15.105Z,98281.91
2023-05-24T11:45:18.911Z,98277.63
2023-05-24T11:50:25.338Z,98283.41
2023-05-24T11:55:28.473Z,98290.22
2023-05-24T12:00:30.667Z,98293.16
2023-05-24T12:05:33.303Z,98300.00
2023-05-24T12:10:36.764Z,98301.53
2023-05-24T12:15:38.506Z,98303.41
2023-05-24T12:20:40.301Z,98303.19
2023-05-24T12:25:42.221Z,98297.66
2023-05-24T12:30:45.050Z,98296.91
2023-05-24T12:35:48.651Z,98288.84
2023-05-24T12:41:03.873Z,98278.81
2023-05-24T12:46:13.258Z,98274.47
2023-05-24T12:51:14.969Z,98288.47
2023-05-24T12:56:16.719Z,98283.06
2023-05-24T13:01:18.390Z,98284.53
2023-05-24T13:06:20.366Z,98289.84
2023-05-24T13:11:23.094Z,98277.63
2023-05-24T13:16:25.806Z,98287.50
2023-05-24T13:21:27.908Z,98292.53
2023-05-24T13:26:30.932Z,98285.25
2023-05-24T13:31:33.151Z,98272.44
2023-05-24T13:36:34.993Z,98268.88
2023-05-24T13:41:37.171Z,98272.34
2023-05-24T13:46:40.295Z,98262.63
2023-05-24T13:51:42.204Z,98268.31
2023-05-24T13:56:45.019Z,98273.28
2023-05-24T14:01:46.860Z,98280.88
2023-05-24T14:06:48.571Z,98278.16
2023-05-24T14:11:50.456Z,98268.63
2023-05-24T14:16:55.033Z,98265.78
2023-05-24T14:21:56.852Z,98263.66
2023-05-24T14:26:58.496Z,98266.84
2023-05-24T14:32:00.319Z,98268.31
2023-05-24T14:37:02.126Z,98268.56
2023-05-24T14:42:03.922Z,98269.56
2023-05-24T14:47:06.064Z,98281.75
2023-05-24T14:52:07.720Z,98270.91
2023-05-24T14:57:09.479Z,98274.34
2023-05-24T15:02:11.191Z,98274.84
2023-05-24T15:07:13.051Z,98257.94
2023-05-24T15:12:15.045Z,98257.25
2023-05-24T15:17:17.552Z,98262.75
2023-05-24T15:22:20.654Z,98279.66
2023-05-24T15:27:22.450Z,98274.28
2023-05-24T15:32:24.355Z,98284.72
2023-05-24T15:37:26.481Z,98277.84
2023-05-24T15:42:28.231Z,98289.25
2023-05-24T15:47:36.257Z,98277.22
2023-05-24T15:52:38.102Z,98280.53
2023-05-24T15:57:39.760Z,98272.09
2023-05-24T16:02:41.571Z,98267.66
2023-05-24T16:07:43.288Z,98255.75
2023-05-24T16:12:45.003Z,98259.50
2023-05-24T16:17:46.863Z,98257.94
2023-05-24T16:22:51.422Z,98258.00
2023-05-24T16:27:55.502Z,98265.09
2023-05-24T16:32:57.259Z,98266.03
2023-05-24T16:37:59.123Z,98274.06
2023-05-24T16:43:01.017Z,98278.53
2023-05-24T16:48:04.663Z,98279.03
2023-05-24T16:53:06.862Z,98283.59
2023-05-24T16:58:08.643Z,98282.16
2023-05-24T17:03:10.510Z,98283.03
2023-05-24T17:08:12.249Z,98286.50
2023-05-24T17:13:13.933Z,98289.31
2023-05-24T17:18:15.671Z,98285.16
2023-05-24T17:23:19.134Z,98290.94
2023-05-24T17:28:27.396Z,98284.59
2023-05-24T17:33:30.936Z,98293.38
2023-05-24T17:38:37.685Z,98291.88
2023-05-24T17:43:40.490Z,98289.00
2023-05-24T17:48:43.520Z,98283.91
2023-05-24T17:53:46.443Z,98283.84
2023-05-24T17:58:48.555Z,98281.63
2023-05-24T18:03:50.257Z,98283.81
2023-05-24T18:08:51.910Z,98291.63
2023-05-24T18:13:53.663Z,98281.41
2023-05-24T18:18:56.131Z,98292.19
2023-05-24T18:23:57.866Z,98303.63
2023-05-24T18:28:59.530Z,98316.31
2023-05-24T18:34:01.925Z,98318.22
2023-05-24T18:39:04.295Z,98322.00
2023-05-24T18:44:05.969Z,98322.47
2023-05-24T18:49:10.939Z,98332.38
2023-05-24T18:54:13.787Z,98337.38
2023-05-24T18:59:16.824Z,98331.31
2023-05-24T19:04:18.554Z,98344.22
2023-05-24T19:09:20.445Z,98345.81
2023-05-24T19:14:22.387Z,98345.16
2023-05-24T19:19:24.373Z,98351.41
2023-05-24T19:24:26.139Z,98352.63
2023-05-24T19:29:28.276Z,98349.44
2023-05-24T19:34:31.924Z,98353.34
2023-05-24T19:39:33.629Z,98360.72
2023-05-24T19:44:35.319Z,98371.56
2023-05-24T19:49:37.108Z,98369.59
2023-05-24T19:54:38.836Z,98376.06
2023-05-24T19:59:40.583Z,98376.78
2023-05-24T20:04:43.786Z,98379.81
2023-05-24T20:09:45.508Z,98387.31
2023-05-24T20:14:47.239Z,98386.66
2023-05-24T20:19:48.889Z,98391.72
2023-05-24T20:24:50.688Z,98401.41
2023-05-24T20:29:52.355Z,98401.66
2023-05-24T20:34:54.035Z,98409.44
2023-05-24T20:39:56.048Z,98407.41
2023-05-24T20:44:57.971Z,98407.91
2023-05-24T20:49:59.681Z,98414.72
2023-05-24T20:55:01.601Z,98419.56
2023-05-24T21:00:04.187Z,98421.72
2023-05-24T21:05:06.626Z,98424.16
2023-05-24T21:10:09.366Z,98423.06
2023-05-24T21:15:11.212Z,98432.03
2023-05-24T21:20:12.960Z,98428.84
2023-05-24T21:25:14.828Z,98433.88
2023-05-24T21:30:16.581Z,98426.53
2023-05-24T21:35:18.253Z,98433.19
2023-05-24T21:40:19.928Z,98441.56
2023-05-24T21:45:21.785Z,98439.75
2023-05-24T21:50:23.529Z,98436.72
2023-05-24T21:55:25.509Z,98442.41
2023-05-24T22:00:27.502Z,98436.78
2023-05-24T22:05:29.151Z,98438.78
2023-05-24T22:10:30.800Z,98435.19
2023-05-24T22:15:32.453Z,98442.50
2023-05-24T22:20:36.477Z,98444.63
2023-05-24T22:25:41.815Z,98454.06
2023-05-24T22:30:43.608Z,98451.28
2023-05-24T22:35:45.685Z,98446.63
2023-05-24T22:40:47.386Z,98447.06
2023-05-24T22:45:49.075Z,98446.13
2023-05-24T22:50:50.773Z,98450.00
2023-05-24T22:55:52.492Z,98446.03
2023-05-24T23:00:55.313Z,98447.56
2023-05-24T23:06:03.649Z,98445.00
2023-05-24T23:11:10.556Z,98456.47
2023-05-24T23:16:12.593Z,98471.84
2023-05-24T23:21:17.045Z,98465.41
2023-05-24T23:26:19.174Z,98459.00
2023-05-24T23:31:21.007Z,98460.31
2023-05-24T23:36:22.705Z,98466.72
2023-05-24T23:41:24.369Z,98464.41
2023-05-24T23:46:26.062Z,98473.44
2023-05-24T23:51:29.972Z,98470.63
2023-05-24T23:56:31.602Z,98469.94
